Washington Executive (W32)
Clinton, MD
Field Elevation: 249
Lat: 38°44.89N  Long: 76°55.97W
CTAF/Unicom Freq: 122.8000
   
    
Weather Advisories
11/26/2014 10:51 Z
Altimeter 30.08" Hg
Wind 073° @ 6 KT
Gusts 8 KT
Temperature 6° C (43° F)
Dewpoint 3° C (37° F)
Relative Humidity 82%
Density Altitude -1,069 feet
Condensation Altitude 1,713 feet
Wind Chill 4° C (39° F)
  Wind and Runways
Indicated Runway = 5
History
 
 
More Info
All DigiWx sites map
Weather Radar
NOAA Forecast
 
Airport IQ 5010
(HMIEM) Shock Trauma Ctr
(26N) Ocean City
 
about DigiWx
 
FAA Disclaimer: The data displayed is for advisory purposes only and is not to be used for flight planning or operations. For official data, please call (not available) to hear the current automated AWOS voice message.
  METAR W32 261051Z AUTO 07006G08KT 06/03 A3008